sensor_id;sensor_type;location;lat;lon;timestamp;P1;durP1;ratioP1;P2;durP2;ratioP2
59308;SDS011;48433;53.016;-2.260;2023-03-12T00:02:16;26.52;;;16.75;;
59308;SDS011;48433;53.016;-2.260;2023-03-12T00:04:44;24.95;;;15.60;;
59308;SDS011;48433;53.016;-2.260;2023-03-12T00:07:12;25.08;;;15.88;;
59308;SDS011;48433;53.016;-2.260;2023-03-12T00:09:40;26.38;;;16.45;;
59308;SDS011;48433;53.016;-2.260;2023-03-12T00:12:08;25.67;;;16.02;;
59308;SDS011;48433;53.016;-2.260;2023-03-12T00:14:36;28.27;;;17.52;;
59308;SDS011;48433;53.016;-2.260;2023-03-12T00:17:04;26.73;;;16.35;;
59308;SDS011;48433;53.016;-2.260;2023-03-12T00:19:32;29.17;;;17.60;;
59308;SDS011;48433;53.016;-2.260;2023-03-12T00:21:59;28.25;;;17.10;;
59308;SDS011;48433;53.016;-2.260;2023-03-12T00:24:27;26.83;;;16.42;;
59308;SDS011;48433;53.016;-2.260;2023-03-12T00:26:55;26.92;;;16.45;;
59308;SDS011;48433;53.016;-2.260;2023-03-12T00:29:22;26.25;;;16.33;;
59308;SDS011;48433;53.016;-2.260;2023-03-12T00:31:51;26.30;;;16.85;;
59308;SDS011;48433;53.016;-2.260;2023-03-12T00:34:20;25.55;;;16.40;;
59308;SDS011;48433;53.016;-2.260;2023-03-12T00:36:48;30.10;;;18.10;;
59308;SDS011;48433;53.016;-2.260;2023-03-12T00:39:15;34.13;;;18.90;;
59308;SDS011;48433;53.016;-2.260;2023-03-12T00:41:43;30.42;;;18.00;;
59308;SDS011;48433;53.016;-2.260;2023-03-12T00:44:11;32.00;;;18.23;;
59308;SDS011;48433;53.016;-2.260;2023-03-12T00:46:38;26.90;;;16.15;;
59308;SDS011;48433;53.016;-2.260;2023-03-12T00:49:06;29.40;;;17.23;;
59308;SDS011;48433;53.016;-2.260;2023-03-12T00:51:34;29.27;;;17.42;;
59308;SDS011;48433;53.016;-2.260;2023-03-12T00:54:02;31.58;;;17.13;;
59308;SDS011;48433;53.016;-2.260;2023-03-12T00:56:30;27.42;;;15.98;;
59308;SDS011;48433;53.016;-2.260;2023-03-12T00:58:58;27.38;;;15.63;;
59308;SDS011;48433;53.016;-2.260;2023-03-12T01:01:25;27.48;;;16.50;;
59308;SDS011;48433;53.016;-2.260;2023-03-12T01:03:54;27.52;;;15.73;;
59308;SDS011;48433;53.016;-2.260;2023-03-12T01:06:23;25.08;;;14.27;;
59308;SDS011;48433;53.016;-2.260;2023-03-12T01:08:50;20.17;;;12.52;;
59308;SDS011;48433;53.016;-2.260;2023-03-12T01:11:18;18.73;;;11.25;;
59308;SDS011;48433;53.016;-2.260;2023-03-12T01:13:47;19.45;;;10.88;;
59308;SDS011;48433;53.016;-2.260;2023-03-12T01:16:16;16.50;;;9.13;;
59308;SDS011;48433;53.016;-2.260;2023-03-12T01:18:44;15.27;;;8.98;;
59308;SDS011;48433;53.016;-2.260;2023-03-12T01:21:12;16.95;;;8.20;;
59308;SDS011;48433;53.016;-2.260;2023-03-12T01:23:39;14.27;;;7.55;;
59308;SDS011;48433;53.016;-2.260;2023-03-12T01:26:07;12.98;;;7.22;;
59308;SDS011;48433;53.016;-2.260;2023-03-12T01:28:35;15.27;;;6.65;;
59308;SDS011;48433;53.016;-2.260;2023-03-12T01:31:07;14.32;;;7.80;;
59308;SDS011;48433;53.016;-2.260;2023-03-12T01:33:37;16.77;;;7.38;;
59308;SDS011;48433;53.016;-2.260;2023-03-12T01:36:05;14.73;;;6.47;;
59308;SDS011;48433;53.016;-2.260;2023-03-12T01:38:42;16.75;;;7.25;;
59308;SDS011;48433;53.016;-2.260;2023-03-12T01:41:10;11.75;;;5.93;;
59308;SDS011;48433;53.016;-2.260;2023-03-12T01:43:38;9.77;;;5.50;;
59308;SDS011;48433;53.016;-2.260;2023-03-12T01:48:38;17.25;;;7.75;;
59308;SDS011;48433;53.016;-2.260;2023-03-12T01:51:34;20.85;;;6.43;;
59308;SDS011;48433;53.016;-2.260;2023-03-12T01:54:09;16.58;;;5.65;;
59308;SDS011;48433;53.016;-2.260;2023-03-12T01:56:41;21.60;;;7.65;;
59308;SDS011;48433;53.016;-2.260;2023-03-12T01:59:13;17.88;;;6.65;;
59308;SDS011;48433;53.016;-2.260;2023-03-12T02:04:11;18.50;;;5.80;;
59308;SDS011;48433;53.016;-2.260;2023-03-12T02:09:47;23.90;;;7.13;;
59308;SDS011;48433;53.016;-2.260;2023-03-12T02:12:15;21.67;;;6.30;;
59308;SDS011;48433;53.016;-2.260;2023-03-12T02:14:43;24.73;;;5.90;;
59308;SDS011;48433;53.016;-2.260;2023-03-12T02:17:11;25.60;;;6.78;;
59308;SDS011;48433;53.016;-2.260;2023-03-12T02:23:08;29.63;;;7.25;;
59308;SDS011;48433;53.016;-2.260;2023-03-12T02:25:40;35.17;;;7.03;;
59308;SDS011;48433;53.016;-2.260;2023-03-12T02:28:13;30.38;;;7.47;;
59308;SDS011;48433;53.016;-2.260;2023-03-12T02:30:45;25.60;;;6.38;;
59308;SDS011;48433;53.016;-2.260;2023-03-12T02:33:15;23.42;;;6.50;;
59308;SDS011;48433;53.016;-2.260;2023-03-12T02:35:44;31.08;;;7.05;;
59308;SDS011;48433;53.016;-2.260;2023-03-12T02:44:21;28.90;;;6.15;;
59308;SDS011;48433;53.016;-2.260;2023-03-12T02:46:55;12.55;;;4.82;;
59308;SDS011;48433;53.016;-2.260;2023-03-12T02:49:25;39.10;;;7.22;;
59308;SDS011;48433;53.016;-2.260;2023-03-12T02:51:54;16.20;;;6.32;;
59308;SDS011;48433;53.016;-2.260;2023-03-12T02:54:22;25.83;;;5.78;;
59308;SDS011;48433;53.016;-2.260;2023-03-12T02:56:50;21.92;;;5.18;;
59308;SDS011;48433;53.016;-2.260;2023-03-12T02:59:19;24.38;;;7.35;;
59308;SDS011;48433;53.016;-2.260;2023-03-12T03:01:51;29.48;;;6.80;;
59308;SDS011;48433;53.016;-2.260;2023-03-12T03:04:20;40.70;;;7.38;;
59308;SDS011;48433;53.016;-2.260;2023-03-12T03:06:48;39.92;;;8.20;;
59308;SDS011;48433;53.016;-2.260;2023-03-12T03:09:16;31.23;;;7.47;;
59308;SDS011;48433;53.016;-2.260;2023-03-12T03:11:45;29.75;;;6.13;;
59308;SDS011;48433;53.016;-2.260;2023-03-12T03:14:13;37.13;;;7.95;;
59308;SDS011;48433;53.016;-2.260;2023-03-12T03:16:41;29.42;;;6.95;;
59308;SDS011;48433;53.016;-2.260;2023-03-12T03:19:08;28.45;;;7.57;;
59308;SDS011;48433;53.016;-2.260;2023-03-12T03:21:37;24.48;;;5.45;;
59308;SDS011;48433;53.016;-2.260;2023-03-12T03:24:04;37.75;;;7.07;;
59308;SDS011;48433;53.016;-2.260;2023-03-12T03:26:32;29.20;;;7.22;;
59308;SDS011;48433;53.016;-2.260;2023-03-12T03:29:00;27.35;;;6.90;;
59308;SDS011;48433;53.016;-2.260;2023-03-12T03:31:28;20.92;;;5.55;;
59308;SDS011;48433;53.016;-2.260;2023-03-12T03:33:56;37.45;;;6.82;;
59308;SDS011;48433;53.016;-2.260;2023-03-12T03:36:24;23.75;;;7.43;;
59308;SDS011;48433;53.016;-2.260;2023-03-12T03:39:05;30.00;;;8.23;;
59308;SDS011;48433;53.016;-2.260;2023-03-12T03:41:33;23.40;;;6.63;;
59308;SDS011;48433;53.016;-2.260;2023-03-12T03:44:01;23.85;;;4.85;;
59308;SDS011;48433;53.016;-2.260;2023-03-12T03:46:32;36.40;;;6.80;;
59308;SDS011;48433;53.016;-2.260;2023-03-12T03:49:06;25.50;;;5.55;;
59308;SDS011;48433;53.016;-2.260;2023-03-12T03:51:35;30.77;;;6.95;;
59308;SDS011;48433;53.016;-2.260;2023-03-12T03:54:07;33.47;;;6.70;;
59308;SDS011;48433;53.016;-2.260;2023-03-12T03:56:35;35.65;;;6.38;;
59308;SDS011;48433;53.016;-2.260;2023-03-12T03:59:04;34.58;;;6.30;;
59308;SDS011;48433;53.016;-2.260;2023-03-12T04:01:36;38.70;;;6.93;;
59308;SDS011;48433;53.016;-2.260;2023-03-12T04:04:04;38.13;;;8.57;;
59308;SDS011;48433;53.016;-2.260;2023-03-12T04:06:33;34.53;;;7.25;;
59308;SDS011;48433;53.016;-2.260;2023-03-12T04:09:01;32.05;;;6.65;;
59308;SDS011;48433;53.016;-2.260;2023-03-12T04:11:30;39.05;;;8.10;;
59308;SDS011;48433;53.016;-2.260;2023-03-12T04:13:59;23.50;;;5.00;;
59308;SDS011;48433;53.016;-2.260;2023-03-12T04:16:30;30.87;;;6.53;;
59308;SDS011;48433;53.016;-2.260;2023-03-12T04:18:59;32.35;;;8.35;;
59308;SDS011;48433;53.016;-2.260;2023-03-12T04:21:27;24.85;;;5.43;;
59308;SDS011;48433;53.016;-2.260;2023-03-12T04:23:55;48.33;;;7.68;;
59308;SDS011;48433;53.016;-2.260;2023-03-12T04:26:27;40.55;;;7.22;;
59308;SDS011;48433;53.016;-2.260;2023-03-12T04:28:56;39.53;;;6.45;;
59308;SDS011;48433;53.016;-2.260;2023-03-12T04:31:24;33.47;;;6.55;;
59308;SDS011;48433;53.016;-2.260;2023-03-12T04:33:52;37.08;;;6.72;;
59308;SDS011;48433;53.016;-2.260;2023-03-12T04:36:22;35.88;;;5.95;;
59308;SDS011;48433;53.016;-2.260;2023-03-12T04:38:51;27.98;;;5.70;;
59308;SDS011;48433;53.016;-2.260;2023-03-12T04:41:25;42.03;;;7.32;;
59308;SDS011;48433;53.016;-2.260;2023-03-12T04:43:59;25.58;;;5.88;;
59308;SDS011;48433;53.016;-2.260;2023-03-12T04:46:27;35.78;;;6.28;;
59308;SDS011;48433;53.016;-2.260;2023-03-12T04:48:55;41.70;;;8.93;;
59308;SDS011;48433;53.016;-2.260;2023-03-12T04:51:24;28.95;;;5.72;;
59308;SDS011;48433;53.016;-2.260;2023-03-12T04:53:51;28.85;;;7.03;;
59308;SDS011;48433;53.016;-2.260;2023-03-12T04:56:20;32.30;;;5.65;;
59308;SDS011;48433;53.016;-2.260;2023-03-12T04:58:49;34.45;;;5.97;;
59308;SDS011;48433;53.016;-2.260;2023-03-12T05:01:22;23.83;;;4.32;;
59308;SDS011;48433;53.016;-2.260;2023-03-12T05:03:52;42.55;;;7.35;;
59308;SDS011;48433;53.016;-2.260;2023-03-12T05:06:21;36.63;;;7.72;;
59308;SDS011;48433;53.016;-2.260;2023-03-12T05:08:50;17.13;;;4.38;;
59308;SDS011;48433;53.016;-2.260;2023-03-12T05:11:19;30.63;;;5.13;;
59308;SDS011;48433;53.016;-2.260;2023-03-12T05:13:47;29.15;;;7.53;;
59308;SDS011;48433;53.016;-2.260;2023-03-12T05:16:15;33.22;;;6.05;;
59308;SDS011;48433;53.016;-2.260;2023-03-12T05:18:44;33.97;;;6.40;;
59308;SDS011;48433;53.016;-2.260;2023-03-12T05:21:14;28.67;;;5.70;;
59308;SDS011;48433;53.016;-2.260;2023-03-12T05:23:43;30.33;;;6.30;;
59308;SDS011;48433;53.016;-2.260;2023-03-12T05:26:20;24.85;;;5.28;;
59308;SDS011;48433;53.016;-2.260;2023-03-12T05:28:53;23.95;;;5.60;;
59308;SDS011;48433;53.016;-2.260;2023-03-12T05:31:23;28.30;;;5.07;;
59308;SDS011;48433;53.016;-2.260;2023-03-12T05:33:51;32.70;;;4.95;;
59308;SDS011;48433;53.016;-2.260;2023-03-12T05:36:20;43.00;;;6.53;;
59308;SDS011;48433;53.016;-2.260;2023-03-12T05:38:48;27.00;;;5.28;;
59308;SDS011;48433;53.016;-2.260;2023-03-12T05:41:23;26.77;;;5.82;;
59308;SDS011;48433;53.016;-2.260;2023-03-12T05:43:57;41.47;;;9.05;;
59308;SDS011;48433;53.016;-2.260;2023-03-12T05:46:27;27.23;;;5.95;;
59308;SDS011;48433;53.016;-2.260;2023-03-12T05:48:55;33.95;;;6.53;;
59308;SDS011;48433;53.016;-2.260;2023-03-12T05:51:23;34.75;;;5.90;;
59308;SDS011;48433;53.016;-2.260;2023-03-12T05:53:51;32.72;;;4.75;;
59308;SDS011;48433;53.016;-2.260;2023-03-12T05:56:19;24.23;;;5.25;;
59308;SDS011;48433;53.016;-2.260;2023-03-12T05:58:47;25.55;;;5.90;;
59308;SDS011;48433;53.016;-2.260;2023-03-12T06:01:21;32.60;;;7.32;;
59308;SDS011;48433;53.016;-2.260;2023-03-12T06:03:50;34.05;;;5.40;;
59308;SDS011;48433;53.016;-2.260;2023-03-12T06:06:19;25.67;;;5.20;;
59308;SDS011;48433;53.016;-2.260;2023-03-12T06:08:47;29.65;;;7.40;;
59308;SDS011;48433;53.016;-2.260;2023-03-12T06:11:15;23.80;;;4.60;;
59308;SDS011;48433;53.016;-2.260;2023-03-12T06:13:43;34.95;;;5.70;;
59308;SDS011;48433;53.016;-2.260;2023-03-12T06:16:14;32.85;;;6.10;;
59308;SDS011;48433;53.016;-2.260;2023-03-12T06:18:48;41.38;;;7.18;;
59308;SDS011;48433;53.016;-2.260;2023-03-12T06:21:19;23.75;;;5.40;;
59308;SDS011;48433;53.016;-2.260;2023-03-12T06:23:48;27.27;;;6.68;;
59308;SDS011;48433;53.016;-2.260;2023-03-12T06:26:49;30.10;;;6.65;;
59308;SDS011;48433;53.016;-2.260;2023-03-12T06:29:17;36.60;;;6.97;;
59308;SDS011;48433;53.016;-2.260;2023-03-12T06:31:45;41.20;;;7.45;;
59308;SDS011;48433;53.016;-2.260;2023-03-12T06:34:14;35.33;;;6.25;;
59308;SDS011;48433;53.016;-2.260;2023-03-12T06:36:43;30.23;;;8.05;;
59308;SDS011;48433;53.016;-2.260;2023-03-12T06:39:10;34.92;;;7.38;;
59308;SDS011;48433;53.016;-2.260;2023-03-12T06:41:38;21.98;;;4.70;;
59308;SDS011;48433;53.016;-2.260;2023-03-12T06:44:08;28.40;;;6.25;;
59308;SDS011;48433;53.016;-2.260;2023-03-12T06:46:35;31.95;;;6.40;;
59308;SDS011;48433;53.016;-2.260;2023-03-12T06:49:04;27.33;;;6.15;;
59308;SDS011;48433;53.016;-2.260;2023-03-12T06:51:32;29.98;;;6.35;;
59308;SDS011;48433;53.016;-2.260;2023-03-12T06:53:59;28.75;;;5.22;;
59308;SDS011;48433;53.016;-2.260;2023-03-12T06:56:29;22.45;;;5.13;;
59308;SDS011;48433;53.016;-2.260;2023-03-12T06:58:57;31.38;;;6.80;;
59308;SDS011;48433;53.016;-2.260;2023-03-12T07:01:25;29.65;;;5.93;;
59308;SDS011;48433;53.016;-2.260;2023-03-12T07:03:53;30.05;;;4.75;;
59308;SDS011;48433;53.016;-2.260;2023-03-12T07:06:21;24.30;;;5.55;;
59308;SDS011;48433;53.016;-2.260;2023-03-12T07:08:50;31.10;;;5.80;;
59308;SDS011;48433;53.016;-2.260;2023-03-12T07:11:18;25.08;;;4.63;;
59308;SDS011;48433;53.016;-2.260;2023-03-12T07:13:46;28.13;;;6.00;;
59308;SDS011;48433;53.016;-2.260;2023-03-12T07:16:14;37.53;;;6.70;;
59308;SDS011;48433;53.016;-2.260;2023-03-12T07:18:42;31.67;;;5.78;;
59308;SDS011;48433;53.016;-2.260;2023-03-12T07:21:09;15.07;;;3.90;;
59308;SDS011;48433;53.016;-2.260;2023-03-12T07:23:37;26.23;;;5.65;;
59308;SDS011;48433;53.016;-2.260;2023-03-12T07:26:05;32.35;;;7.93;;
59308;SDS011;48433;53.016;-2.260;2023-03-12T07:28:33;31.48;;;6.07;;
59308;SDS011;48433;53.016;-2.260;2023-03-12T07:31:02;28.17;;;5.68;;
59308;SDS011;48433;53.016;-2.260;2023-03-12T07:33:30;30.23;;;5.43;;
59308;SDS011;48433;53.016;-2.260;2023-03-12T07:35:59;35.10;;;6.03;;
59308;SDS011;48433;53.016;-2.260;2023-03-12T07:38:27;33.85;;;5.90;;
59308;SDS011;48433;53.016;-2.260;2023-03-12T07:40:55;33.65;;;7.35;;
59308;SDS011;48433;53.016;-2.260;2023-03-12T07:43:24;23.77;;;5.05;;
59308;SDS011;48433;53.016;-2.260;2023-03-12T07:45:53;38.17;;;5.72;;
59308;SDS011;48433;53.016;-2.260;2023-03-12T07:48:21;28.05;;;5.85;;
59308;SDS011;48433;53.016;-2.260;2023-03-12T07:50:49;32.42;;;5.50;;
59308;SDS011;48433;53.016;-2.260;2023-03-12T07:53:18;25.73;;;4.63;;
59308;SDS011;48433;53.016;-2.260;2023-03-12T07:55:46;37.33;;;7.70;;
59308;SDS011;48433;53.016;-2.260;2023-03-12T07:58:14;27.55;;;4.88;;
59308;SDS011;48433;53.016;-2.260;2023-03-12T08:00:43;23.92;;;4.80;;
59308;SDS011;48433;53.016;-2.260;2023-03-12T08:03:11;32.17;;;6.82;;
59308;SDS011;48433;53.016;-2.260;2023-03-12T08:05:39;26.92;;;6.53;;
59308;SDS011;48433;53.016;-2.260;2023-03-12T08:08:07;34.40;;;6.40;;
59308;SDS011;48433;53.016;-2.260;2023-03-12T08:10:35;26.20;;;5.60;;
59308;SDS011;48433;53.016;-2.260;2023-03-12T08:13:03;38.03;;;6.40;;
59308;SDS011;48433;53.016;-2.260;2023-03-12T08:15:31;28.38;;;5.03;;
59308;SDS011;48433;53.016;-2.260;2023-03-12T08:17:59;29.33;;;6.03;;
59308;SDS011;48433;53.016;-2.260;2023-03-12T08:20:27;29.45;;;5.28;;
59308;SDS011;48433;53.016;-2.260;2023-03-12T08:22:55;30.10;;;5.35;;
59308;SDS011;48433;53.016;-2.260;2023-03-12T08:25:23;26.10;;;6.43;;
59308;SDS011;48433;53.016;-2.260;2023-03-12T08:27:51;23.17;;;6.55;;
59308;SDS011;48433;53.016;-2.260;2023-03-12T08:30:19;22.25;;;5.32;;
59308;SDS011;48433;53.016;-2.260;2023-03-12T08:32:47;34.55;;;5.25;;
59308;SDS011;48433;53.016;-2.260;2023-03-12T08:35:14;34.97;;;6.95;;
59308;SDS011;48433;53.016;-2.260;2023-03-12T08:37:42;31.15;;;7.45;;
59308;SDS011;48433;53.016;-2.260;2023-03-12T08:40:10;30.75;;;6.65;;
59308;SDS011;48433;53.016;-2.260;2023-03-12T08:42:41;23.60;;;5.88;;
59308;SDS011;48433;53.016;-2.260;2023-03-12T08:45:10;27.83;;;5.93;;
59308;SDS011;48433;53.016;-2.260;2023-03-12T08:47:39;31.83;;;6.20;;
59308;SDS011;48433;53.016;-2.260;2023-03-12T08:50:11;31.77;;;6.55;;
59308;SDS011;48433;53.016;-2.260;2023-03-12T08:52:40;27.67;;;5.25;;
59308;SDS011;48433;53.016;-2.260;2023-03-12T08:55:09;23.65;;;5.93;;
59308;SDS011;48433;53.016;-2.260;2023-03-12T08:57:38;28.70;;;5.05;;
59308;SDS011;48433;53.016;-2.260;2023-03-12T09:00:06;20.17;;;4.70;;
59308;SDS011;48433;53.016;-2.260;2023-03-12T09:02:42;27.02;;;4.95;;
59308;SDS011;48433;53.016;-2.260;2023-03-12T09:05:11;43.08;;;6.82;;
59308;SDS011;48433;53.016;-2.260;2023-03-12T09:07:39;30.95;;;6.40;;
59308;SDS011;48433;53.016;-2.260;2023-03-12T09:10:07;24.90;;;4.85;;
59308;SDS011;48433;53.016;-2.260;2023-03-12T09:12:36;28.35;;;5.40;;
59308;SDS011;48433;53.016;-2.260;2023-03-12T09:15:03;21.58;;;5.53;;
59308;SDS011;48433;53.016;-2.260;2023-03-12T09:17:31;18.40;;;4.35;;
59308;SDS011;48433;53.016;-2.260;2023-03-12T09:19:59;24.08;;;4.97;;
59308;SDS011;48433;53.016;-2.260;2023-03-12T09:22:28;23.30;;;4.82;;
59308;SDS011;48433;53.016;-2.260;2023-03-12T09:24:56;24.20;;;4.45;;
59308;SDS011;48433;53.016;-2.260;2023-03-12T09:27:24;25.30;;;5.00;;
59308;SDS011;48433;53.016;-2.260;2023-03-12T09:29:55;22.92;;;5.18;;
59308;SDS011;48433;53.016;-2.260;2023-03-12T09:32:27;21.35;;;4.93;;
59308;SDS011;48433;53.016;-2.260;2023-03-12T09:34:55;39.35;;;7.57;;
59308;SDS011;48433;53.016;-2.260;2023-03-12T09:37:22;25.27;;;5.38;;
59308;SDS011;48433;53.016;-2.260;2023-03-12T09:39:50;17.73;;;4.70;;
59308;SDS011;48433;53.016;-2.260;2023-03-12T09:42:22;35.10;;;6.07;;
59308;SDS011;48433;53.016;-2.260;2023-03-12T09:45:27;20.50;;;5.07;;
59308;SDS011;48433;53.016;-2.260;2023-03-12T09:47:59;29.23;;;4.88;;
59308;SDS011;48433;53.016;-2.260;2023-03-12T09:50:33;18.20;;;4.75;;
59308;SDS011;48433;53.016;-2.260;2023-03-12T09:55:47;22.58;;;4.15;;
59308;SDS011;48433;53.016;-2.260;2023-03-12T09:58:28;26.52;;;6.47;;
59308;SDS011;48433;53.016;-2.260;2023-03-12T10:07:27;17.75;;;4.50;;
59308;SDS011;48433;53.016;-2.260;2023-03-12T10:11:07;16.75;;;4.63;;
59308;SDS011;48433;53.016;-2.260;2023-03-12T10:26:39;20.65;;;4.65;;
59308;SDS011;48433;53.016;-2.260;2023-03-12T10:31:49;19.20;;;4.60;;
59308;SDS011;48433;53.016;-2.260;2023-03-12T10:34:29;22.63;;;3.88;;
59308;SDS011;48433;53.016;-2.260;2023-03-12T10:37:13;17.25;;;3.63;;
59308;SDS011;48433;53.016;-2.260;2023-03-12T10:40:00;24.35;;;5.03;;
59308;SDS011;48433;53.016;-2.260;2023-03-12T10:42:28;23.02;;;4.50;;
59308;SDS011;48433;53.016;-2.260;2023-03-12T10:50:11;27.77;;;6.45;;
59308;SDS011;48433;53.016;-2.260;2023-03-12T10:52:39;23.25;;;4.90;;
59308;SDS011;48433;53.016;-2.260;2023-03-12T10:57:52;22.95;;;5.78;;
59308;SDS011;48433;53.016;-2.260;2023-03-12T11:00:21;19.92;;;4.80;;
59308;SDS011;48433;53.016;-2.260;2023-03-12T11:05:32;21.48;;;4.55;;
59308;SDS011;48433;53.016;-2.260;2023-03-12T11:08:03;26.85;;;5.40;;
59308;SDS011;48433;53.016;-2.260;2023-03-12T11:10:50;18.92;;;5.20;;
59308;SDS011;48433;53.016;-2.260;2023-03-12T11:13:22;19.42;;;4.03;;
59308;SDS011;48433;53.016;-2.260;2023-03-12T11:15:50;24.58;;;4.47;;
59308;SDS011;48433;53.016;-2.260;2023-03-12T11:21:13;20.23;;;3.95;;
59308;SDS011;48433;53.016;-2.260;2023-03-12T11:24:01;16.05;;;3.55;;
59308;SDS011;48433;53.016;-2.260;2023-03-12T11:26:37;21.83;;;4.60;;
59308;SDS011;48433;53.016;-2.260;2023-03-12T11:29:25;20.38;;;4.53;;
59308;SDS011;48433;53.016;-2.260;2023-03-12T11:34:34;20.77;;;4.63;;
59308;SDS011;48433;53.016;-2.260;2023-03-12T11:42:03;26.88;;;5.63;;
59308;SDS011;48433;53.016;-2.260;2023-03-12T11:50:32;22.40;;;4.22;;
59308;SDS011;48433;53.016;-2.260;2023-03-12T11:58:49;24.38;;;5.05;;
59308;SDS011;48433;53.016;-2.260;2023-03-12T12:04:46;15.65;;;4.03;;
59308;SDS011;48433;53.016;-2.260;2023-03-12T12:32:15;22.02;;;4.38;;
59308;SDS011;48433;53.016;-2.260;2023-03-12T12:45:45;15.85;;;3.42;;
59308;SDS011;48433;53.016;-2.260;2023-03-12T12:48:30;14.45;;;4.13;;
59308;SDS011;48433;53.016;-2.260;2023-03-12T12:51:05;19.30;;;4.25;;
59308;SDS011;48433;53.016;-2.260;2023-03-12T12:56:40;17.92;;;3.80;;
59308;SDS011;48433;53.016;-2.260;2023-03-12T13:01:50;22.70;;;3.97;;
59308;SDS011;48433;53.016;-2.260;2023-03-12T13:04:25;29.20;;;4.78;;
59308;SDS011;48433;53.016;-2.260;2023-03-12T13:09:34;15.00;;;4.28;;
59308;SDS011;48433;53.016;-2.260;2023-03-12T13:12:10;22.48;;;5.60;;
59308;SDS011;48433;53.016;-2.260;2023-03-12T13:14:41;29.23;;;4.40;;
59308;SDS011;48433;53.016;-2.260;2023-03-12T13:17:30;19.08;;;4.07;;
59308;SDS011;48433;53.016;-2.260;2023-03-12T13:27:59;27.95;;;5.35;;
59308;SDS011;48433;53.016;-2.260;2023-03-12T13:30:52;21.67;;;5.40;;
59308;SDS011;48433;53.016;-2.260;2023-03-12T13:36:46;18.70;;;4.90;;
59308;SDS011;48433;53.016;-2.260;2023-03-12T13:39:18;26.92;;;4.72;;
59308;SDS011;48433;53.016;-2.260;2023-03-12T13:41:55;22.65;;;4.90;;
59308;SDS011;48433;53.016;-2.260;2023-03-12T13:44:44;24.30;;;4.95;;
59308;SDS011;48433;53.016;-2.260;2023-03-12T13:47:30;25.63;;;5.20;;
59308;SDS011;48433;53.016;-2.260;2023-03-12T13:50:04;24.88;;;5.55;;
59308;SDS011;48433;53.016;-2.260;2023-03-12T14:03:17;25.20;;;5.75;;
59308;SDS011;48433;53.016;-2.260;2023-03-12T14:05:59;23.48;;;5.28;;
59308;SDS011;48433;53.016;-2.260;2023-03-12T14:19:51;13.27;;;3.33;;
59308;SDS011;48433;53.016;-2.260;2023-03-12T14:22:34;19.85;;;3.58;;
59308;SDS011;48433;53.016;-2.260;2023-03-12T14:25:11;18.75;;;3.78;;
59308;SDS011;48433;53.016;-2.260;2023-03-12T14:27:41;19.70;;;2.97;;
59308;SDS011;48433;53.016;-2.260;2023-03-12T14:30:22;25.00;;;5.00;;
59308;SDS011;48433;53.016;-2.260;2023-03-12T14:32:55;17.27;;;3.83;;
59308;SDS011;48433;53.016;-2.260;2023-03-12T14:35:28;21.00;;;4.35;;
59308;SDS011;48433;53.016;-2.260;2023-03-12T14:43:25;22.77;;;4.47;;
59308;SDS011;48433;53.016;-2.260;2023-03-12T14:45:54;21.88;;;5.03;;
59308;SDS011;48433;53.016;-2.260;2023-03-12T14:48:27;23.00;;;5.07;;
59308;SDS011;48433;53.016;-2.260;2023-03-12T14:50:55;19.65;;;4.07;;
59308;SDS011;48433;53.016;-2.260;2023-03-12T14:53:28;23.88;;;4.85;;
59308;SDS011;48433;53.016;-2.260;2023-03-12T14:58:26;19.15;;;4.47;;
59308;SDS011;48433;53.016;-2.260;2023-03-12T15:00:55;21.75;;;4.05;;
59308;SDS011;48433;53.016;-2.260;2023-03-12T15:03:24;23.42;;;3.80;;
59308;SDS011;48433;53.016;-2.260;2023-03-12T15:05:53;20.13;;;5.03;;
59308;SDS011;48433;53.016;-2.260;2023-03-12T15:08:21;14.63;;;5.47;;
59308;SDS011;48433;53.016;-2.260;2023-03-12T15:10:56;21.55;;;3.90;;
59308;SDS011;48433;53.016;-2.260;2023-03-12T15:13:25;19.85;;;3.72;;
59308;SDS011;48433;53.016;-2.260;2023-03-12T15:15:53;22.98;;;4.70;;
59308;SDS011;48433;53.016;-2.260;2023-03-12T15:20:50;18.88;;;3.22;;
59308;SDS011;48433;53.016;-2.260;2023-03-12T15:23:20;18.95;;;4.38;;
59308;SDS011;48433;53.016;-2.260;2023-03-12T15:28:42;19.27;;;4.10;;
59308;SDS011;48433;53.016;-2.260;2023-03-12T15:31:13;19.55;;;4.88;;
59308;SDS011;48433;53.016;-2.260;2023-03-12T15:33:42;16.42;;;4.15;;
59308;SDS011;48433;53.016;-2.260;2023-03-12T15:38:44;18.50;;;4.13;;
59308;SDS011;48433;53.016;-2.260;2023-03-12T15:41:16;13.35;;;3.03;;
59308;SDS011;48433;53.016;-2.260;2023-03-12T15:43:45;19.95;;;4.18;;
59308;SDS011;48433;53.016;-2.260;2023-03-12T15:46:15;17.95;;;3.30;;
59308;SDS011;48433;53.016;-2.260;2023-03-12T15:49:01;15.85;;;4.18;;
59308;SDS011;48433;53.016;-2.260;2023-03-12T15:51:31;14.20;;;2.85;;
59308;SDS011;48433;53.016;-2.260;2023-03-12T15:56:40;18.67;;;4.00;;
59308;SDS011;48433;53.016;-2.260;2023-03-12T16:01:54;16.50;;;3.95;;
59308;SDS011;48433;53.016;-2.260;2023-03-12T16:04:23;11.10;;;2.78;;
59308;SDS011;48433;53.016;-2.260;2023-03-12T16:06:50;16.45;;;3.17;;
59308;SDS011;48433;53.016;-2.260;2023-03-12T16:09:23;19.17;;;3.90;;
59308;SDS011;48433;53.016;-2.260;2023-03-12T16:11:52;18.45;;;3.90;;
59308;SDS011;48433;53.016;-2.260;2023-03-12T16:14:22;20.75;;;3.08;;
59308;SDS011;48433;53.016;-2.260;2023-03-12T16:16:50;13.75;;;3.40;;
59308;SDS011;48433;53.016;-2.260;2023-03-12T16:19:19;11.82;;;2.10;;
59308;SDS011;48433;53.016;-2.260;2023-03-12T16:21:47;10.30;;;2.15;;
59308;SDS011;48433;53.016;-2.260;2023-03-12T16:24:15;8.98;;;1.98;;
59308;SDS011;48433;53.016;-2.260;2023-03-12T16:26:50;7.55;;;1.75;;
59308;SDS011;48433;53.016;-2.260;2023-03-12T16:29:20;13.02;;;3.08;;
59308;SDS011;48433;53.016;-2.260;2023-03-12T16:31:50;13.38;;;2.67;;
59308;SDS011;48433;53.016;-2.260;2023-03-12T16:34:18;9.15;;;1.23;;
59308;SDS011;48433;53.016;-2.260;2023-03-12T16:36:46;9.27;;;1.67;;
59308;SDS011;48433;53.016;-2.260;2023-03-12T16:39:14;10.77;;;2.15;;
59308;SDS011;48433;53.016;-2.260;2023-03-12T16:41:44;8.52;;;2.33;;
59308;SDS011;48433;53.016;-2.260;2023-03-12T16:44:14;10.65;;;2.28;;
59308;SDS011;48433;53.016;-2.260;2023-03-12T16:46:46;8.90;;;2.95;;
59308;SDS011;48433;53.016;-2.260;2023-03-12T16:49:14;11.13;;;2.13;;
59308;SDS011;48433;53.016;-2.260;2023-03-12T16:51:43;8.15;;;1.67;;
59308;SDS011;48433;53.016;-2.260;2023-03-12T16:54:11;8.30;;;1.83;;
59308;SDS011;48433;53.016;-2.260;2023-03-12T16:56:43;4.25;;;1.23;;
59308;SDS011;48433;53.016;-2.260;2023-03-12T16:59:22;9.43;;;2.20;;
59308;SDS011;48433;53.016;-2.260;2023-03-12T17:01:52;8.57;;;1.58;;
59308;SDS011;48433;53.016;-2.260;2023-03-12T17:04:20;4.47;;;1.35;;
59308;SDS011;48433;53.016;-2.260;2023-03-12T17:06:47;5.85;;;1.73;;
59308;SDS011;48433;53.016;-2.260;2023-03-12T17:09:15;9.45;;;2.00;;
59308;SDS011;48433;53.016;-2.260;2023-03-12T17:11:43;8.00;;;2.13;;
59308;SDS011;48433;53.016;-2.260;2023-03-12T17:14:16;7.75;;;2.00;;
59308;SDS011;48433;53.016;-2.260;2023-03-12T17:16:45;5.80;;;1.50;;
59308;SDS011;48433;53.016;-2.260;2023-03-12T17:19:12;10.13;;;1.88;;
59308;SDS011;48433;53.016;-2.260;2023-03-12T17:21:40;8.77;;;2.13;;
59308;SDS011;48433;53.016;-2.260;2023-03-12T17:24:12;7.40;;;1.50;;
59308;SDS011;48433;53.016;-2.260;2023-03-12T17:26:40;15.68;;;3.92;;
59308;SDS011;48433;53.016;-2.260;2023-03-12T17:29:08;6.82;;;1.95;;
59308;SDS011;48433;53.016;-2.260;2023-03-12T17:31:36;9.05;;;2.10;;
59308;SDS011;48433;53.016;-2.260;2023-03-12T17:34:04;7.63;;;2.75;;
59308;SDS011;48433;53.016;-2.260;2023-03-12T17:36:34;7.60;;;1.80;;
59308;SDS011;48433;53.016;-2.260;2023-03-12T17:39:02;9.10;;;2.85;;